createdAt,value
2019-02-12T00:00:48.460Z,0
2019-02-12T00:01:48.795Z,0
2019-02-12T00:02:48.664Z,0
2019-02-12T00:03:48.623Z,0
2019-02-12T00:04:48.633Z,0
2019-02-12T00:05:48.519Z,0
2019-02-12T00:06:48.474Z,0
2019-02-12T00:07:48.611Z,0
2019-02-12T00:08:48.588Z,0
2019-02-12T00:09:48.511Z,0
2019-02-12T00:10:48.497Z,0
2019-02-12T00:11:48.139Z,0
2019-02-12T00:12:48.475Z,0
2019-02-12T00:13:48.616Z,0
2019-02-12T00:14:48.086Z,0
2019-02-12T00:15:48.441Z,0
2019-02-12T00:16:47.918Z,0
2019-02-12T00:17:47.392Z,0
2019-02-12T00:18:47.849Z,0
2019-02-12T00:19:47.824Z,0
2019-02-12T00:20:48.049Z,0
2019-02-12T00:21:48.033Z,0
2019-02-12T00:22:48.020Z,0
2019-02-12T00:23:48.001Z,0
2019-02-12T00:24:47.731Z,0
2019-02-12T00:25:47.731Z,0
2019-02-12T00:26:47.986Z,0
2019-02-12T00:27:48.402Z,0
2019-02-12T00:28:47.904Z,0
2019-02-12T00:29:47.640Z,0
2019-02-12T00:30:47.880Z,0
2019-02-12T00:31:47.855Z,0
2019-02-12T00:32:47.834Z,0
2019-02-12T00:33:47.804Z,0
2019-02-12T00:34:48.088Z,0
2019-02-12T00:35:47.779Z,0
2019-02-12T00:36:47.562Z,0
2019-02-12T00:37:47.742Z,0
2019-02-12T00:38:47.706Z,0
2019-02-12T00:39:47.448Z,0
2019-02-12T00:40:47.672Z,0
2019-02-12T00:41:47.679Z,0
2019-02-12T00:42:47.667Z,0
2019-02-12T00:43:47.632Z,0
2019-02-12T00:44:47.360Z,0
2019-02-12T00:45:47.597Z,0
2019-02-12T00:46:47.555Z,0
2019-02-12T00:47:47.545Z,0
2019-02-12T00:48:47.531Z,0
2019-02-12T00:49:47.252Z,0
2019-02-12T00:50:47.486Z,0
2019-02-12T00:51:47.642Z,0
2019-02-12T00:52:47.453Z,0
2019-02-12T00:53:47.454Z,0
2019-02-12T00:54:47.424Z,0
2019-02-12T00:55:47.419Z,0
2019-02-12T00:56:47.141Z,0
2019-02-12T00:57:47.409Z,0
2019-02-12T00:58:47.338Z,0
2019-02-12T00:59:47.319Z,0
2019-02-12T01:00:47.312Z,0
2019-02-12T01:01:47.287Z,0
2019-02-12T01:02:47.032Z,0
2019-02-12T01:03:47.233Z,0
2019-02-12T01:04:46.722Z,0
2019-02-12T01:05:47.196Z,0
2019-02-12T01:06:47.182Z,0
2019-02-12T01:07:47.161Z,0
2019-02-12T01:08:46.894Z,0
2019-02-12T01:09:46.876Z,0
2019-02-12T01:10:47.115Z,0
2019-02-12T01:11:47.083Z,0
2019-02-12T01:12:46.819Z,0
2019-02-12T01:13:47.108Z,0
2019-02-12T01:14:47.025Z,0
2019-02-12T01:15:47.006Z,0
2019-02-12T01:16:47.007Z,0
2019-02-12T01:17:46.731Z,0
2019-02-12T01:18:46.955Z,0
2019-02-12T01:19:46.930Z,0
2019-02-12T01:20:46.926Z,0
2019-02-12T01:21:46.896Z,0
2019-02-12T01:22:46.636Z,0
2019-02-12T01:23:46.857Z,0
2019-02-12T01:24:46.848Z,0
2019-02-12T01:25:46.837Z,0
2019-02-12T01:26:46.799Z,0
2019-02-12T01:27:46.797Z,0
2019-02-12T01:28:46.522Z,0
2019-02-12T01:29:46.753Z,0
2019-02-12T01:30:46.731Z,0
2019-02-12T01:31:46.482Z,0
2019-02-12T01:32:46.864Z,0
2019-02-12T01:33:46.687Z,0
2019-02-12T01:34:46.420Z,0
2019-02-12T01:35:46.639Z,0
2019-02-12T01:36:46.612Z,0
2019-02-12T01:37:46.603Z,0
2019-02-12T01:38:46.582Z,0
2019-02-12T01:39:46.554Z,0
2019-02-12T01:40:48.206Z,0
2019-02-12T01:41:46.513Z,0
2019-02-12T01:42:46.251Z,0
2019-02-12T01:43:46.237Z,0
2019-02-12T01:44:46.459Z,0
2019-02-12T01:45:46.455Z,0
2019-02-12T01:46:46.177Z,0
2019-02-12T01:47:46.408Z,0
2019-02-12T01:48:46.386Z,0
2019-02-12T01:49:46.119Z,0
2019-02-12T01:50:46.369Z,0
2019-02-12T01:51:46.349Z,0
2019-02-12T01:52:46.414Z,0
2019-02-12T01:53:46.296Z,0
2019-02-12T01:54:46.282Z,0
2019-02-12T01:55:46.256Z,0
2019-02-12T01:56:46.229Z,0
2019-02-12T01:57:45.976Z,0
2019-02-12T01:58:45.962Z,0
2019-02-12T01:59:46.174Z,0
2019-02-12T02:00:46.177Z,0
2019-02-12T02:01:46.136Z,0
2019-02-12T02:02:46.193Z,0
2019-02-12T02:03:46.101Z,0
2019-02-12T02:04:46.083Z,0
2019-02-12T02:05:46.061Z,0
2019-02-12T02:06:46.045Z,0
2019-02-12T02:07:46.032Z,0
2019-02-12T02:08:45.756Z,0
2019-02-12T02:09:45.991Z,0
2019-02-12T02:10:46.072Z,0
2019-02-12T02:11:45.727Z,0
2019-02-12T02:12:45.682Z,0
2019-02-12T02:13:45.929Z,0
2019-02-12T02:14:45.893Z,0
2019-02-12T02:15:45.635Z,0
2019-02-12T02:16:45.852Z,0
2019-02-12T02:17:45.839Z,0
2019-02-12T02:18:45.813Z,0
2019-02-12T02:19:45.800Z,0
2019-02-12T02:20:45.781Z,0
2019-02-12T02:21:51.238Z,0
2019-02-12T02:22:45.761Z,0
2019-02-12T02:23:45.719Z,0
2019-02-12T02:24:45.451Z,0
2019-02-12T02:25:45.680Z,0
2019-02-12T02:26:45.412Z,0
2019-02-12T02:27:45.644Z,0
2019-02-12T02:28:45.625Z,0
2019-02-12T02:29:45.354Z,0
2019-02-12T02:30:45.359Z,0
2019-02-12T02:31:45.576Z,0
2019-02-12T02:32:45.582Z,0
2019-02-12T02:33:45.548Z,0
2019-02-12T02:34:45.540Z,0
2019-02-12T02:35:45.497Z,0
2019-02-12T02:36:45.481Z,0
2019-02-12T02:37:44.958Z,0
2019-02-12T02:38:45.500Z,0
2019-02-12T02:39:45.426Z,0
2019-02-12T02:40:45.411Z,0
2019-02-12T02:41:45.389Z,0
2019-02-12T02:42:44.893Z,0
2019-02-12T02:43:45.342Z,0
2019-02-12T02:44:45.314Z,0
2019-02-12T02:45:45.315Z,0
2019-02-12T02:46:45.293Z,0
2019-02-12T02:47:45.312Z,0
2019-02-12T02:48:45.261Z,0
2019-02-12T02:49:45.255Z,0
2019-02-12T02:50:45.208Z,0
2019-02-12T02:51:53.504Z,0
2019-02-12T02:52:45.169Z,0
2019-02-12T02:53:45.150Z,0
2019-02-12T02:54:45.129Z,0
2019-02-12T02:55:45.121Z,0
2019-02-12T02:56:45.129Z,0
2019-02-12T02:57:44.828Z,0
2019-02-12T02:58:45.055Z,0
2019-02-12T02:59:45.079Z,0
2019-02-12T03:00:45.014Z,0
2019-02-12T03:01:44.991Z,0
2019-02-12T03:02:44.982Z,0
2019-02-12T03:03:44.707Z,0
2019-02-12T03:04:44.943Z,0
2019-02-12T03:05:44.916Z,0
2019-02-12T03:06:44.897Z,0
2019-02-12T03:07:44.925Z,0
2019-02-12T03:08:44.869Z,0
2019-02-12T03:09:44.595Z,0
2019-02-12T03:10:44.826Z,0
2019-02-12T03:11:44.807Z,0
2019-02-12T03:12:44.787Z,0
2019-02-12T03:13:44.996Z,0
2019-02-12T03:14:44.757Z,0
2019-02-12T03:15:44.746Z,0
2019-02-12T03:16:44.734Z,0
2019-02-12T03:17:44.700Z,0
2019-02-12T03:18:44.672Z,0
2019-02-12T03:19:44.664Z,0
2019-02-12T03:20:44.384Z,0
2019-02-12T03:21:44.627Z,0
2019-02-12T03:22:44.594Z,0
2019-02-12T03:23:44.588Z,0
2019-02-12T03:24:44.602Z,0
2019-02-12T03:25:44.536Z,0
2019-02-12T03:26:44.539Z,0
2019-02-12T03:27:44.263Z,0
2019-02-12T03:28:44.481Z,0
2019-02-12T03:29:44.463Z,0
2019-02-12T03:30:44.478Z,0
2019-02-12T03:31:44.440Z,0
2019-02-12T03:32:44.393Z,0
2019-02-12T03:33:44.410Z,0
2019-02-12T03:34:44.359Z,0
2019-02-12T03:35:44.345Z,0
2019-02-12T03:36:44.342Z,0
2019-02-12T03:37:44.071Z,0
2019-02-12T03:38:44.046Z,0
2019-02-12T03:39:44.270Z,0
2019-02-12T03:40:44.268Z,0
2019-02-12T03:41:44.230Z,0
2019-02-12T03:42:44.247Z,0
2019-02-12T03:43:44.214Z,0
2019-02-12T03:44:43.932Z,0
2019-02-12T03:45:43.913Z,0
2019-02-12T03:46:43.909Z,0
2019-02-12T03:47:44.139Z,0
2019-02-12T03:48:44.098Z,0
2019-02-12T03:49:44.091Z,0
2019-02-12T03:50:44.067Z,0
2019-02-12T03:51:43.792Z,0
2019-02-12T03:52:43.777Z,0
2019-02-12T03:53:44.014Z,0
2019-02-12T03:54:44.015Z,0
2019-02-12T03:55:43.962Z,0
2019-02-12T03:56:43.950Z,0
2019-02-12T03:57:43.691Z,0
2019-02-12T03:58:43.908Z,0
2019-02-12T03:59:43.898Z,0
2019-02-12T04:00:43.623Z,0
2019-02-12T04:01:43.869Z,0
2019-02-12T04:02:43.834Z,0
2019-02-12T04:03:43.927Z,0
2019-02-12T04:04:43.796Z,0
2019-02-12T04:05:43.528Z,0
2019-02-12T04:06:43.758Z,0
2019-02-12T04:07:43.744Z,0
2019-02-12T04:08:43.724Z,0
2019-02-12T04:09:43.697Z,0
2019-02-12T04:10:43.709Z,0
2019-02-12T04:11:43.666Z,0
2019-02-12T04:12:43.394Z,0
2019-02-12T04:13:43.377Z,0
2019-02-12T04:14:43.599Z,0
2019-02-12T04:15:43.587Z,0
2019-02-12T04:16:43.344Z,0
2019-02-12T04:17:43.550Z,0
2019-02-12T04:18:43.279Z,0
2019-02-12T04:19:43.522Z,0
2019-02-12T04:20:43.504Z,0
2019-02-12T04:21:43.476Z,0
2019-02-12T04:22:43.454Z,0
2019-02-12T04:23:42.940Z,0
2019-02-12T04:24:43.419Z,0
2019-02-12T04:25:43.399Z,0
2019-02-12T04:26:43.376Z,0
2019-02-12T04:27:43.365Z,0
2019-02-12T04:28:43.358Z,0
2019-02-12T04:29:43.324Z,0
2019-02-12T04:30:43.295Z,0
2019-02-12T04:31:43.276Z,0
2019-02-12T04:32:43.270Z,0
2019-02-12T04:33:43.245Z,0
2019-02-12T04:34:43.233Z,0
2019-02-12T04:35:42.964Z,0
2019-02-12T04:36:43.207Z,0
2019-02-12T04:37:43.178Z,0
2019-02-12T04:38:43.147Z,0
2019-02-12T04:39:43.122Z,0
2019-02-12T04:40:43.108Z,0
2019-02-12T04:41:43.105Z,0
2019-02-12T04:42:42.821Z,0
2019-02-12T04:43:43.059Z,0
2019-02-12T04:44:43.026Z,0
2019-02-12T04:45:42.771Z,0
2019-02-12T04:46:43.002Z,0
2019-02-12T04:47:43.077Z,0
2019-02-12T04:48:42.960Z,0
2019-02-12T04:49:42.683Z,0
2019-02-12T04:50:42.664Z,0
2019-02-12T04:51:42.906Z,0
2019-02-12T04:52:42.638Z,0
2019-02-12T04:53:42.856Z,0
2019-02-12T04:54:42.852Z,0
2019-02-12T04:55:42.573Z,0
2019-02-12T04:56:42.550Z,0
2019-02-12T04:57:42.789Z,0
2019-02-12T04:58:42.525Z,0
2019-02-12T04:59:42.991Z,0
2019-02-12T05:00:42.722Z,0
2019-02-12T05:01:42.466Z,0
2019-02-12T05:02:42.685Z,0
2019-02-12T05:03:42.663Z,0
2019-02-12T05:04:42.643Z,0
2019-02-12T05:05:42.685Z,0
2019-02-12T05:06:42.390Z,0
2019-02-12T05:07:42.610Z,0
2019-02-12T05:08:42.577Z,0
2019-02-12T05:09:42.552Z,0
2019-02-12T05:10:42.526Z,0
2019-02-12T05:11:42.537Z,0
2019-02-12T05:12:42.494Z,0
2019-02-12T05:13:42.509Z,0
2019-02-12T05:14:42.493Z,0
2019-02-12T05:15:42.439Z,0
2019-02-12T05:16:42.433Z,0
2019-02-12T05:17:42.397Z,0
2019-02-12T05:18:42.133Z,0
2019-02-12T05:19:42.106Z,0
2019-02-12T05:20:42.090Z,0
2019-02-12T05:21:42.332Z,0
2019-02-12T05:22:50.829Z,0
2019-02-12T05:23:42.282Z,0
2019-02-12T05:24:42.275Z,0
2019-02-12T05:25:42.260Z,0
2019-02-12T05:26:42.226Z,0
2019-02-12T05:27:42.218Z,0
2019-02-12T05:28:42.182Z,0
2019-02-12T05:29:42.173Z,0
2019-02-12T05:30:41.943Z,0
2019-02-12T05:31:42.131Z,0
2019-02-12T05:32:42.107Z,0
2019-02-12T05:33:41.840Z,0
2019-02-12T05:34:42.185Z,0
2019-02-12T05:35:42.050Z,0
2019-02-12T05:36:41.793Z,0
2019-02-12T05:37:42.015Z,0
2019-02-12T05:38:41.992Z,0
2019-02-12T05:39:41.976Z,0
2019-02-12T05:40:41.958Z,0
2019-02-12T05:41:41.942Z,0
2019-02-12T05:42:41.922Z,0
2019-02-12T05:43:41.896Z,0
2019-02-12T05:44:41.898Z,0
2019-02-12T05:45:41.861Z,0
2019-02-12T05:46:41.596Z,0
2019-02-12T05:47:41.833Z,0
2019-02-12T05:48:41.823Z,0
2019-02-12T05:49:41.777Z,0
2019-02-12T05:50:41.843Z,0
2019-02-12T05:51:41.754Z,0
2019-02-12T05:52:41.753Z,0
2019-02-12T05:53:41.705Z,0
2019-02-12T05:54:41.448Z,0
2019-02-12T05:55:41.477Z,0
2019-02-12T05:56:41.645Z,0
2019-02-12T05:57:41.411Z,0
2019-02-12T05:58:41.607Z,4
2019-02-12T05:59:41.584Z,0
2019-02-12T06:00:41.576Z,0
2019-02-12T06:01:41.553Z,4
2019-02-12T06:02:41.548Z,0
2019-02-12T06:03:41.515Z,4
2019-02-12T06:04:41.492Z,4
2019-02-12T06:05:40.986Z,8
2019-02-12T06:06:41.461Z,8
2019-02-12T06:07:41.452Z,8
2019-02-12T06:08:41.423Z,8
2019-02-12T06:09:41.398Z,8
2019-02-12T06:10:41.378Z,12
2019-02-12T06:11:41.127Z,12
2019-02-12T06:12:41.350Z,20
2019-02-12T06:13:41.324Z,20
2019-02-12T06:14:41.312Z,20
2019-02-12T06:15:41.295Z,28
2019-02-12T06:16:41.015Z,32
2019-02-12T06:17:41.243Z,32
2019-02-12T06:18:41.226Z,36
2019-02-12T06:19:40.967Z,44
2019-02-12T06:20:41.192Z,52
2019-02-12T06:21:41.179Z,60
2019-02-12T06:22:41.140Z,68
2019-02-12T06:23:41.124Z,80
2019-02-12T06:24:40.863Z,96
2019-02-12T06:25:41.137Z,104
2019-02-12T06:26:41.080Z,112
2019-02-12T06:27:41.054Z,128
2019-02-12T06:28:41.028Z,132
2019-02-12T06:29:41.029Z,156
2019-02-12T06:30:40.762Z,164
2019-02-12T06:31:40.975Z,164
2019-02-12T06:32:40.955Z,172
2019-02-12T06:33:40.188Z,176
2019-02-12T06:34:40.916Z,204
2019-02-12T06:35:40.898Z,224
2019-02-12T06:36:40.888Z,244
2019-02-12T06:37:40.860Z,260
2019-02-12T06:38:40.836Z,264
2019-02-12T06:39:40.838Z,276
2019-02-12T06:40:40.804Z,272
2019-02-12T06:41:40.785Z,284
2019-02-12T06:42:40.778Z,332
2019-02-12T06:43:40.525Z,352
2019-02-12T06:44:40.734Z,316
2019-02-12T06:45:40.737Z,288
2019-02-12T06:46:40.709Z,296
2019-02-12T06:47:40.447Z,308
2019-02-12T06:48:40.651Z,344
2019-02-12T06:49:40.377Z,380
2019-02-12T06:50:40.380Z,436
2019-02-12T06:51:40.585Z,504
2019-02-12T06:52:40.572Z,540
2019-02-12T06:53:40.306Z,540
2019-02-12T06:54:40.534Z,564
2019-02-12T06:55:40.264Z,556
2019-02-12T06:56:40.493Z,572
2019-02-12T06:57:41.681Z,536
2019-02-12T06:58:40.457Z,532
2019-02-12T06:59:40.439Z,500
2019-02-12T07:00:40.422Z,476
2019-02-12T07:01:40.405Z,492
2019-02-12T07:02:41.852Z,552
2019-02-12T07:03:40.367Z,596
2019-02-12T07:04:40.338Z,640
2019-02-12T07:05:40.333Z,584
2019-02-12T07:06:40.053Z,492
2019-02-12T07:07:40.284Z,548
2019-02-12T07:08:40.018Z,664
2019-02-12T07:09:40.269Z,776
2019-02-12T07:10:40.224Z,968
2019-02-12T07:11:39.952Z,1052
2019-02-12T07:12:40.211Z,908
2019-02-12T07:13:40.164Z,892
2019-02-12T07:14:40.151Z,916
2019-02-12T07:15:40.183Z,1004
2019-02-12T07:16:40.110Z,1120
2019-02-12T07:17:40.089Z,1152
2019-02-12T07:18:39.825Z,1276
2019-02-12T07:19:40.053Z,1184
2019-02-12T07:20:40.070Z,948
2019-02-12T07:21:40.060Z,872
2019-02-12T07:22:39.498Z,888
2019-02-12T07:23:40.025Z,968
2019-02-12T07:24:39.966Z,1208
2019-02-12T07:25:39.938Z,1356
2019-02-12T07:26:39.938Z,1420
2019-02-12T07:27:39.898Z,1544
2019-02-12T07:28:39.876Z,1752
2019-02-12T07:29:39.872Z,1700
2019-02-12T07:30:39.349Z,1252
2019-02-12T07:31:41.841Z,1384
2019-02-12T07:32:39.804Z,1540
2019-02-12T07:33:39.861Z,1684
2019-02-12T07:34:39.762Z,1352
2019-02-12T07:35:39.747Z,1324
2019-02-12T07:36:40.781Z,1468
2019-02-12T07:37:39.711Z,1372
2019-02-12T07:38:39.713Z,1264
2019-02-12T07:39:39.661Z,1300
2019-02-12T07:40:39.650Z,1292
2019-02-12T07:41:39.675Z,1208
2019-02-12T07:42:39.642Z,1236
2019-02-12T07:43:39.592Z,1228
2019-02-12T07:44:39.571Z,1200
2019-02-12T07:45:39.566Z,1328
2019-02-12T07:46:39.551Z,1620
2019-02-12T07:47:39.515Z,2168
2019-02-12T07:48:39.495Z,2844
2019-02-12T07:49:39.225Z,2916
2019-02-12T07:50:39.212Z,2712
2019-02-12T07:51:39.188Z,3200
2019-02-12T07:52:39.437Z,3164
2019-02-12T07:53:39.409Z,2980
2019-02-12T07:54:39.393Z,2620
2019-02-12T07:55:39.356Z,2376
2019-02-12T07:56:39.360Z,2328
2019-02-12T07:57:39.341Z,2340
2019-02-12T07:58:39.306Z,2488
2019-02-12T07:59:39.285Z,2512
2019-02-12T08:00:39.268Z,2208
2019-02-12T08:01:39.252Z,2104
2019-02-12T08:02:41.067Z,1932
2019-02-12T08:03:39.210Z,2016
2019-02-12T08:04:39.206Z,2104
2019-02-12T08:05:39.175Z,2140
2019-02-12T08:06:39.142Z,2276
2019-02-12T08:07:39.205Z,2360
2019-02-12T08:08:39.104Z,2416
2019-02-12T08:09:39.087Z,2284
2019-02-12T08:10:39.086Z,2416
2019-02-12T08:11:38.801Z,2092
2019-02-12T08:12:38.899Z,2140
2019-02-12T08:13:39.012Z,2204
2019-02-12T08:14:38.997Z,2340
2019-02-12T08:15:38.971Z,2528
2019-02-12T08:16:38.953Z,2624
2019-02-12T08:17:38.939Z,2552
2019-02-12T08:18:38.670Z,2640
2019-02-12T08:19:38.905Z,2612
2019-02-12T08:20:38.633Z,2520
2019-02-12T08:21:38.739Z,2484
2019-02-12T08:22:38.852Z,2568
2019-02-12T08:23:48.173Z,2444
2019-02-12T08:24:38.827Z,2548
2019-02-12T08:25:38.789Z,2412
2019-02-12T08:26:38.764Z,2712
2019-02-12T08:27:38.779Z,2436
2019-02-12T08:28:38.748Z,2484
2019-02-12T08:29:38.771Z,2400
2019-02-12T08:30:38.699Z,2400
2019-02-12T08:31:38.674Z,2460
2019-02-12T08:32:38.413Z,2832
2019-02-12T08:33:38.390Z,3140
2019-02-12T08:34:38.620Z,3224
2019-02-12T08:35:38.353Z,3224
2019-02-12T08:36:38.575Z,3584
2019-02-12T08:37:39.213Z,3656
2019-02-12T08:38:38.574Z,3104
2019-02-12T08:39:38.555Z,2868
2019-02-12T08:40:38.281Z,3184
2019-02-12T08:41:38.484Z,3368
2019-02-12T08:42:38.470Z,3528
2019-02-12T08:43:38.460Z,3576
2019-02-12T08:44:38.209Z,3692
2019-02-12T08:45:38.444Z,3284
2019-02-12T08:46:38.383Z,2348
2019-02-12T08:47:38.383Z,2100
2019-02-12T08:48:38.352Z,2228
2019-02-12T08:49:38.348Z,2460
2019-02-12T08:50:38.327Z,2992
2019-02-12T08:51:38.299Z,3640
2019-02-12T08:52:38.287Z,4052
2019-02-12T08:53:38.006Z,4700
2019-02-12T08:54:38.277Z,4536
2019-02-12T08:55:39.319Z,4376
2019-02-12T08:56:38.209Z,4144
2019-02-12T08:57:38.176Z,4400
2019-02-12T08:58:38.182Z,4324
2019-02-12T08:59:38.139Z,4344
2019-02-12T09:00:38.120Z,4604
2019-02-12T09:01:38.102Z,5044
2019-02-12T09:02:38.086Z,4764
2019-02-12T09:03:37.893Z,4536
2019-02-12T09:04:37.578Z,3960
2019-02-12T09:05:38.045Z,4000
2019-02-12T09:06:38.006Z,4168
2019-02-12T09:07:38.007Z,3888
2019-02-12T09:08:38.025Z,4024
2019-02-12T09:09:37.962Z,4952
2019-02-12T09:10:37.941Z,6108
2019-02-12T09:11:37.685Z,6228
2019-02-12T09:12:37.902Z,5960
2019-02-12T09:13:37.892Z,5716
2019-02-12T09:14:37.863Z,6596
2019-02-12T09:15:37.876Z,6216
2019-02-12T09:16:37.325Z,5936
2019-02-12T09:17:37.805Z,6440
2019-02-12T09:18:37.564Z,6320
2019-02-12T09:19:37.772Z,6040
2019-02-12T09:20:37.759Z,5872
2019-02-12T09:21:37.772Z,5976
2019-02-12T09:22:37.834Z,6080
2019-02-12T09:23:37.718Z,6360
2019-02-12T09:24:37.440Z,6652
2019-02-12T09:25:37.678Z,6824
2019-02-12T09:26:37.643Z,6632
2019-02-12T09:27:37.375Z,6372
2019-02-12T09:28:37.605Z,5932
2019-02-12T09:29:37.618Z,5884
2019-02-12T09:30:37.571Z,6664
2019-02-12T09:31:37.560Z,5956
2019-02-12T09:32:37.542Z,6360
2019-02-12T09:33:37.518Z,6984
2019-02-12T09:34:37.503Z,6948
2019-02-12T09:35:37.248Z,6920
2019-02-12T09:36:37.487Z,6664
2019-02-12T09:37:38.826Z,6972
2019-02-12T09:38:36.942Z,6328
2019-02-12T09:39:37.422Z,6700
2019-02-12T09:40:36.903Z,7152
2019-02-12T09:41:37.376Z,6752
2019-02-12T09:42:37.359Z,7048
2019-02-12T09:43:37.336Z,7080
2019-02-12T09:44:37.126Z,6968
2019-02-12T09:45:37.299Z,5956
2019-02-12T09:46:37.367Z,6312
2019-02-12T09:47:37.270Z,7620
2019-02-12T09:48:37.261Z,7272
2019-02-12T09:49:37.231Z,7912
2019-02-12T09:50:37.225Z,8096
2019-02-12T09:51:36.949Z,8288
2019-02-12T09:52:37.178Z,8516
2019-02-12T09:53:37.155Z,8168
2019-02-12T09:54:37.163Z,8268
2019-02-12T09:55:37.123Z,9072
2019-02-12T09:56:37.121Z,7736
2019-02-12T09:57:36.843Z,6620
2019-02-12T09:58:37.087Z,8344
2019-02-12T09:59:37.063Z,9096
2019-02-12T10:00:37.038Z,8028
2019-02-12T10:01:37.047Z,7268
2019-02-12T10:02:37.015Z,7736
2019-02-12T10:03:36.989Z,8832
2019-02-12T10:04:36.971Z,9856
2019-02-12T10:05:36.949Z,10604
2019-02-12T10:06:36.687Z,9996
2019-02-12T10:07:37.285Z,10208
2019-02-12T10:08:36.904Z,8944
2019-02-12T10:09:36.884Z,8980
2019-02-12T10:10:36.917Z,8804
2019-02-12T10:11:36.847Z,8792
2019-02-12T10:12:36.916Z,8988
2019-02-12T10:13:36.846Z,9704
2019-02-12T10:14:36.802Z,9504
2019-02-12T10:15:36.779Z,9160
2019-02-12T10:16:36.755Z,9092
2019-02-12T10:17:36.740Z,8896
2019-02-12T10:18:36.729Z,8880
2019-02-12T10:19:36.705Z,9760
2019-02-12T10:20:36.691Z,9684
2019-02-12T10:21:36.694Z,8796
2019-02-12T10:22:36.426Z,7780
2019-02-12T10:23:36.636Z,8112
2019-02-12T10:24:36.683Z,8900
2019-02-12T10:25:36.606Z,9220
2019-02-12T10:26:36.394Z,9432
2019-02-12T10:27:36.672Z,9368
2019-02-12T10:28:36.554Z,9712
2019-02-12T10:29:36.538Z,9540
2019-02-12T10:30:36.522Z,9772
2019-02-12T10:31:36.508Z,9744
2019-02-12T10:32:36.265Z,9880
2019-02-12T10:33:36.475Z,9328
2019-02-12T10:34:36.454Z,8392
2019-02-12T10:35:36.441Z,8568
2019-02-12T10:36:36.417Z,8856
2019-02-12T10:37:36.392Z,8824
2019-02-12T10:38:36.133Z,8172
2019-02-12T10:39:36.386Z,7020
2019-02-12T10:40:36.096Z,6252
2019-02-12T10:41:36.350Z,7232
2019-02-12T10:42:36.321Z,7652
2019-02-12T10:43:36.297Z,7800
2019-02-12T10:44:36.277Z,6280
2019-02-12T10:45:36.297Z,6704
2019-02-12T10:46:36.249Z,8724
2019-02-12T10:47:36.277Z,7840
2019-02-12T10:48:36.216Z,6636
2019-02-12T10:49:36.195Z,6280
2019-02-12T10:50:35.936Z,6428
2019-02-12T10:51:36.164Z,7916
2019-02-12T10:52:35.907Z,7872
2019-02-12T10:53:36.335Z,7200
2019-02-12T10:54:36.134Z,7096
2019-02-12T10:55:36.127Z,7428
2019-02-12T10:56:36.071Z,7864
2019-02-12T10:57:36.056Z,8364
2019-02-12T10:58:36.048Z,8860
2019-02-12T10:59:36.019Z,9792
2019-02-12T11:00:35.754Z,9164
2019-02-12T11:01:35.990Z,9548
2019-02-12T11:02:36.002Z,9824
2019-02-12T11:03:35.952Z,10308
2019-02-12T11:04:35.931Z,10248
2019-02-12T11:05:35.919Z,10440
2019-02-12T11:06:35.653Z,10080
2019-02-12T11:07:35.883Z,9796
2019-02-12T11:08:35.863Z,9420
2019-02-12T11:09:35.844Z,8796
2019-02-12T11:10:35.830Z,9040
2019-02-12T11:11:35.809Z,8972
2019-02-12T11:12:35.543Z,8640
2019-02-12T11:13:35.791Z,8640
2019-02-12T11:14:35.775Z,9524
2019-02-12T11:15:35.493Z,9940
2019-02-12T11:16:35.721Z,9412
2019-02-12T11:17:35.716Z,10968
2019-02-12T11:18:35.689Z,10840
2019-02-12T11:19:35.670Z,11076
2019-02-12T11:20:35.413Z,11524
2019-02-12T11:21:35.644Z,11332
2019-02-12T11:22:35.631Z,11896
2019-02-12T11:23:35.615Z,11972
2019-02-12T11:24:42.486Z,10968
2019-02-12T11:25:35.575Z,9188
2019-02-12T11:26:35.558Z,9584
2019-02-12T11:27:35.541Z,10020
2019-02-12T11:28:35.528Z,10340
2019-02-12T11:29:35.512Z,10180
2019-02-12T11:30:35.492Z,9872
2019-02-12T11:31:35.477Z,9468
2019-02-12T11:32:35.221Z,9700
2019-02-12T11:33:35.439Z,9180
2019-02-12T11:34:35.432Z,8620
2019-02-12T11:35:36.899Z,8636
2019-02-12T11:36:35.394Z,7800
2019-02-12T11:37:35.148Z,7516
2019-02-12T11:38:35.363Z,8396
2019-02-12T11:39:35.348Z,8376
2019-02-12T11:40:35.076Z,8860
2019-02-12T11:41:36.139Z,9576
2019-02-12T11:42:35.300Z,9356
2019-02-12T11:43:35.273Z,9944
2019-02-12T11:44:35.264Z,10468
2019-02-12T11:45:35.245Z,9132
2019-02-12T11:46:35.235Z,9036
2019-02-12T11:47:35.212Z,8360
2019-02-12T11:48:35.196Z,7596
2019-02-12T11:49:35.223Z,8372
2019-02-12T11:50:35.169Z,8776
2019-02-12T11:51:35.156Z,9136
2019-02-12T11:52:35.134Z,7708
2019-02-12T11:53:35.261Z,8832
2019-02-12T11:54:35.100Z,8900
2019-02-12T11:55:35.084Z,9012
2019-02-12T11:56:35.078Z,9168
2019-02-12T11:57:34.801Z,8876
2019-02-12T11:58:34.793Z,7444
2019-02-12T11:59:35.019Z,4968
2019-02-12T12:00:35.002Z,3920
2019-02-12T12:01:34.982Z,3612
2019-02-12T12:02:41.786Z,4304
2019-02-12T12:03:34.954Z,4580
2019-02-12T12:04:34.937Z,5644
2019-02-12T12:05:34.928Z,6080
2019-02-12T12:06:34.903Z,6300
2019-02-12T12:07:34.894Z,6728
2019-02-12T12:08:34.870Z,6532
2019-02-12T12:09:34.858Z,6580
2019-02-12T12:10:34.848Z,5944
2019-02-12T12:11:34.829Z,5692
2019-02-12T12:12:34.802Z,4608
2019-02-12T12:13:34.790Z,3688
2019-02-12T12:14:34.776Z,3396
2019-02-12T12:15:34.754Z,3624
2019-02-12T12:16:34.511Z,3704
2019-02-12T12:17:34.720Z,3768
2019-02-12T12:18:34.457Z,4596
2019-02-12T12:19:34.691Z,5020
2019-02-12T12:20:34.672Z,4532
2019-02-12T12:21:34.661Z,3820
2019-02-12T12:22:34.642Z,3664
2019-02-12T12:23:34.625Z,4116
2019-02-12T12:24:34.603Z,4676
2019-02-12T12:25:34.590Z,5400
2019-02-12T12:26:34.571Z,6156
2019-02-12T12:27:34.304Z,6408
2019-02-12T12:28:34.530Z,6496
2019-02-12T12:29:34.515Z,6716
2019-02-12T12:30:34.257Z,6520
2019-02-12T12:31:34.495Z,5616
2019-02-12T12:32:34.466Z,5456
2019-02-12T12:33:34.454Z,6872
2019-02-12T12:34:34.433Z,7760
2019-02-12T12:35:34.426Z,8896
2019-02-12T12:36:34.404Z,8584
2019-02-12T12:37:34.385Z,8496
2019-02-12T12:38:34.369Z,7836
2019-02-12T12:39:34.347Z,8004
2019-02-12T12:40:34.338Z,8580
2019-02-12T12:41:34.314Z,8636
2019-02-12T12:42:34.292Z,8244
2019-02-12T12:43:34.658Z,7900
2019-02-12T12:44:34.017Z,7996
2019-02-12T12:45:34.251Z,7816
2019-02-12T12:46:34.230Z,7724
2019-02-12T12:47:33.994Z,7840
2019-02-12T12:48:33.948Z,7492
2019-02-12T12:49:34.559Z,6972
2019-02-12T12:50:33.958Z,6968
2019-02-12T12:51:34.158Z,8180
2019-02-12T12:52:34.149Z,8348
2019-02-12T12:53:34.111Z,7972
2019-02-12T12:54:33.875Z,8324
2019-02-12T12:55:34.079Z,8000
2019-02-12T12:56:34.078Z,7764
2019-02-12T12:57:41.530Z,7712
2019-02-12T12:58:33.810Z,7424
2019-02-12T12:59:34.023Z,7104
2019-02-12T13:00:33.744Z,6792
2019-02-12T13:01:33.752Z,6728
2019-02-12T13:02:33.980Z,6564
2019-02-12T13:03:33.950Z,6220
2019-02-12T13:04:33.930Z,5412
2019-02-12T13:05:33.918Z,5228
2019-02-12T13:06:33.694Z,5492
2019-02-12T13:07:33.888Z,5612
2019-02-12T13:08:33.628Z,5652
2019-02-12T13:09:33.847Z,5576
2019-02-12T13:10:33.834Z,5508
2019-02-12T13:11:33.702Z,5460
2019-02-12T13:12:35.082Z,5756
2019-02-12T13:13:33.781Z,6188
2019-02-12T13:14:33.765Z,6004
2019-02-12T13:15:33.755Z,5060
2019-02-12T13:16:33.733Z,4068
2019-02-12T13:17:33.723Z,3400
2019-02-12T13:18:33.710Z,3060
2019-02-12T13:19:33.680Z,2956
2019-02-12T13:20:33.660Z,3516
2019-02-12T13:21:33.409Z,4196
2019-02-12T13:22:33.634Z,4420
2019-02-12T13:23:33.614Z,4760
2019-02-12T13:24:33.604Z,5740
2019-02-12T13:25:33.581Z,5200
2019-02-12T13:26:33.312Z,4608
2019-02-12T13:27:33.542Z,4416
2019-02-12T13:28:33.526Z,4844
2019-02-12T13:29:33.511Z,4556
2019-02-12T13:30:33.491Z,4276
2019-02-12T13:31:33.513Z,3716
2019-02-12T13:32:33.212Z,3212
2019-02-12T13:33:33.834Z,2628
2019-02-12T13:34:33.176Z,2280
2019-02-12T13:35:33.412Z,2676
2019-02-12T13:36:33.143Z,2660
2019-02-12T13:37:33.131Z,2564
2019-02-12T13:38:33.113Z,3044
2019-02-12T13:39:33.342Z,3660
2019-02-12T13:40:33.323Z,4040
2019-02-12T13:41:33.068Z,4632
2019-02-12T13:42:33.289Z,4380
2019-02-12T13:43:33.281Z,4852
2019-02-12T13:44:32.999Z,5340
2019-02-12T13:45:33.236Z,5884
2019-02-12T13:46:33.220Z,5892
2019-02-12T13:47:33.208Z,5952
2019-02-12T13:48:33.188Z,6104
2019-02-12T13:49:33.167Z,6248
2019-02-12T13:50:33.151Z,5860
2019-02-12T13:51:33.130Z,5108
2019-02-12T13:52:33.114Z,4300
2019-02-12T13:53:33.096Z,3328
2019-02-12T13:54:33.082Z,2608
2019-02-12T13:55:33.063Z,2544
2019-02-12T13:56:33.055Z,3232
2019-02-12T13:57:32.782Z,3804